Time;durP1;ratioP1;P1;durP2;ratioP2;P2;SDS_P1;SDS_P2;PMS_P1;PMS_P2;Temp;Humidity;BMP_temperature;BMP_pressure;BME280_temperature;BME280_humidity;BME280_pressure;Samples;Min_cycle;Max_cycle;Signal;HPM_P1;HPM_P2
2022/04/04 00:01:17;;;;;;;7.50;4.70;;;2.50;99.90;;;;;;5093799;28;20201;-74
2022/04/04 00:03:44;;;;;;;8.47;4.77;;;2.30;99.90;;;;;;5094974;28;20205;-74
2022/04/04 00:06:11;;;;;;;7.97;5.17;;;2.30;99.90;;;;;;5094742;28;20250;-74
2022/04/04 00:08:38;;;;;;;9.47;5.20;;;2.30;99.90;;;;;;5094220;28;20207;-74
2022/04/04 00:11:06;;;;;;;9.33;5.80;;;2.50;99.90;;;;;;5095682;28;20201;-74
2022/04/04 00:13:35;;;;;;;9.07;5.40;;;2.50;99.90;;;;;;5095085;28;20648;-74
2022/04/04 00:16:01;;;;;;;8.70;5.67;;;2.60;99.90;;;;;;5095160;28;20197;-74
2022/04/04 00:18:28;;;;;;;10.13;5.57;;;2.60;99.90;;;;;;5094839;28;20223;-74
2022/04/04 00:20:55;;;;;;;8.60;5.73;;;2.50;99.90;;;;;;5094264;28;20864;-74
2022/04/04 00:23:22;;;;;;;11.37;6.57;;;2.60;99.90;;;;;;5094790;28;20214;-74
2022/04/04 00:25:49;;;;;;;11.50;6.20;;;2.60;99.90;;;;;;5094675;28;20197;-73
2022/04/04 00:28:16;;;;;;;11.17;6.63;;;2.60;99.90;;;;;;5094415;28;20661;-73
2022/04/04 00:30:45;;;;;;;9.33;6.30;;;2.60;99.90;;;;;;5095053;28;20205;-73
2022/04/04 00:33:12;;;;;;;8.83;6.07;;;2.70;99.90;;;;;;5094275;28;20556;-73
2022/04/04 00:35:39;;;;;;;8.17;5.87;;;2.70;99.90;;;;;;5094922;28;20197;-73
2022/04/04 00:38:08;;;;;;;10.03;6.40;;;2.70;99.90;;;;;;5094144;28;20208;-73
2022/04/04 00:40:35;;;;;;;9.67;6.00;;;2.70;99.90;;;;;;5094128;28;20262;-73
2022/04/04 00:43:02;;;;;;;10.47;6.23;;;2.70;99.90;;;;;;5094368;28;20212;-73
2022/04/04 00:45:29;;;;;;;9.03;6.33;;;2.70;99.90;;;;;;5093887;28;20552;-73
2022/04/04 00:47:57;;;;;;;11.07;6.00;;;2.80;99.90;;;;;;5094079;28;20311;-73
2022/04/04 00:50:24;;;;;;;9.37;6.00;;;2.80;99.90;;;;;;5093743;28;20485;-73
2022/04/04 00:52:52;;;;;;;9.10;5.97;;;2.70;99.90;;;;;;5093969;28;20304;-73
2022/04/04 00:55:20;;;;;;;9.47;5.70;;;2.70;99.90;;;;;;5094386;28;20648;-73
2022/04/04 00:57:47;;;;;;;8.37;5.80;;;2.70;99.90;;;;;;5093980;28;20201;-73
2022/04/04 01:00:15;;;;;;;8.47;5.83;;;2.80;99.90;;;;;;5094274;28;20204;-73
2022/04/04 01:02:43;;;;;;;10.20;5.77;;;2.80;99.90;;;;;;5094632;28;20643;-73
2022/04/04 01:05:11;;;;;;;12.63;6.50;;;2.70;99.90;;;;;;5094066;28;20408;-73
2022/04/04 01:07:39;;;;;;;10.03;6.10;;;2.80;99.90;;;;;;5093617;28;20228;-73
2022/04/04 01:10:08;;;;;;;9.53;5.70;;;2.80;99.90;;;;;;5093475;28;20671;-73
2022/04/04 01:12:34;;;;;;;8.53;6.00;;;2.80;99.90;;;;;;5093045;28;20213;-73
2022/04/04 01:15:01;;;;;;;8.97;5.40;;;2.80;99.90;;;;;;5093629;28;20253;-73
2022/04/04 01:17:29;;;;;;;8.03;6.10;;;2.70;99.90;;;;;;5094510;28;20209;-73
2022/04/04 01:19:56;;;;;;;10.00;5.70;;;2.70;99.90;;;;;;5092934;28;20587;-73
2022/04/04 01:22:25;;;;;;;10.53;6.10;;;2.70;99.90;;;;;;5094105;28;20289;-73
2022/04/04 01:24:53;;;;;;;9.23;6.00;;;2.70;99.90;;;;;;5093356;28;20255;-73
2022/04/04 01:27:20;;;;;;;9.07;6.03;;;2.70;99.90;;;;;;5092807;28;20284;-73
2022/04/04 01:29:47;;;;;;;8.97;5.93;;;2.70;99.90;;;;;;5093748;28;20585;-73
2022/04/04 01:32:14;;;;;;;7.97;5.23;;;2.70;99.90;;;;;;5093432;28;20214;-73
2022/04/04 01:34:41;;;;;;;7.37;5.17;;;2.70;99.90;;;;;;5093791;28;20584;-73
2022/04/04 01:37:09;;;;;;;9.53;6.43;;;2.80;99.90;;;;;;5092743;28;20663;-73
2022/04/04 01:39:36;;;;;;;9.80;6.00;;;2.90;99.90;;;;;;5095954;28;20277;-73
2022/04/04 01:42:05;;;;;;;10.77;5.63;;;2.90;99.90;;;;;;5093084;28;20569;-73
2022/04/04 01:44:32;;;;;;;9.43;6.27;;;2.90;99.90;;;;;;5087620;28;20212;-73
2022/04/04 01:46:59;;;;;;;11.00;5.93;;;2.90;99.90;;;;;;5093742;28;20202;-73
2022/04/04 01:49:26;;;;;;;8.90;5.77;;;2.90;99.90;;;;;;5092891;28;20198;-73
2022/04/04 01:51:53;;;;;;;8.67;5.60;;;2.90;99.90;;;;;;5082566;28;20651;-73
2022/04/04 01:54:20;;;;;;;11.40;6.17;;;2.90;99.90;;;;;;5093657;28;20225;-73
2022/04/04 01:56:47;;;;;;;8.47;5.70;;;2.80;99.90;;;;;;5092695;28;20652;-73
2022/04/04 01:59:15;;;;;;;9.03;5.63;;;2.70;99.90;;;;;;5092586;28;20209;-73
2022/04/04 02:01:42;;;;;;;8.90;5.83;;;2.80;99.90;;;;;;5092592;28;20202;-73
2022/04/04 02:04:11;;;;;;;10.23;6.20;;;2.80;99.90;;;;;;5092749;28;20201;-73
2022/04/04 02:06:39;;;;;;;11.30;6.30;;;2.80;99.90;;;;;;5092996;28;20255;-73
2022/04/04 02:09:06;;;;;;;9.70;5.77;;;2.70;99.90;;;;;;5092080;28;20292;-73
2022/04/04 02:11:34;;;;;;;9.83;6.03;;;2.70;99.90;;;;;;5093551;28;20729;-73
2022/04/04 02:14:02;;;;;;;9.43;6.07;;;2.60;99.90;;;;;;5092406;28;20278;-73
2022/04/04 02:16:31;;;;;;;10.93;6.27;;;2.60;99.90;;;;;;5092223;28;20551;-73
2022/04/04 02:18:57;;;;;;;10.23;6.13;;;2.60;99.90;;;;;;5091417;28;20292;-73
2022/04/04 02:21:24;;;;;;;11.93;7.43;;;2.60;99.90;;;;;;5092962;28;20193;-73
2022/04/04 02:23:52;;;;;;;12.07;7.50;;;2.70;99.90;;;;;;5091551;28;20659;-73
2022/04/04 02:26:20;;;;;;;13.27;8.33;;;2.70;99.90;;;;;;5093196;28;20567;-73
2022/04/04 02:28:47;;;;;;;13.67;8.10;;;2.70;99.90;;;;;;5090694;28;20208;-73
2022/04/04 02:31:14;;;;;;;14.67;8.40;;;2.70;99.90;;;;;;5088996;28;20202;-73
2022/04/04 02:33:43;;;;;;;13.13;8.47;;;2.80;99.90;;;;;;5092276;28;20703;-73
2022/04/04 02:36:11;;;;;;;14.57;8.30;;;2.70;99.90;;;;;;5092837;28;20255;-73
2022/04/04 02:38:38;;;;;;;16.33;9.77;;;2.70;99.90;;;;;;5091111;28;20205;-73
2022/04/04 02:41:05;;;;;;;15.67;9.50;;;2.70;99.90;;;;;;5076260;28;20193;-73
2022/04/04 02:43:33;;;;;;;15.33;9.67;;;2.70;99.90;;;;;;5092112;28;20194;-73
2022/04/04 02:46:00;;;;;;;15.70;8.70;;;2.70;99.90;;;;;;5078323;28;20201;-73
2022/04/04 02:48:27;;;;;;;16.73;9.30;;;2.70;99.90;;;;;;5091865;28;20652;-73
2022/04/04 02:50:55;;;;;;;15.33;9.63;;;2.70;99.90;;;;;;5092693;28;20738;-73
2022/04/04 02:53:22;;;;;;;16.30;10.47;;;2.70;99.90;;;;;;5092574;28;20254;-73
2022/04/04 02:58:33;;;;;;;17.27;9.70;;;2.60;99.90;;;;;;5091014;28;20285;-73
2022/04/04 03:01:00;;;;;;;17.80;10.37;;;2.60;99.90;;;;;;5091460;28;20197;-73
2022/04/04 03:03:27;;;;;;;17.20;9.97;;;2.50;99.90;;;;;;5091506;28;20194;-73
2022/04/04 03:05:55;;;;;;;19.50;10.40;;;2.50;99.90;;;;;;5092607;28;20251;-73
2022/04/04 03:08:22;;;;;;;18.57;10.40;;;2.50;99.90;;;;;;5090929;28;20213;-73
2022/04/04 03:10:49;;;;;;;19.97;11.10;;;2.50;99.90;;;;;;5092444;28;20250;-73
2022/04/04 03:13:16;;;;;;;18.50;10.70;;;2.50;99.90;;;;;;5092256;28;20761;-73
2022/04/04 03:15:43;;;;;;;18.47;10.57;;;2.40;99.90;;;;;;5092617;28;20695;-73
2022/04/04 03:18:10;;;;;;;18.87;11.30;;;2.50;99.90;;;;;;5091575;28;20200;-73
2022/04/04 03:20:37;;;;;;;18.57;10.87;;;2.50;99.90;;;;;;5091686;28;20194;-73
2022/04/04 03:23:06;;;;;;;20.57;12.03;;;2.40;99.90;;;;;;5092469;28;20200;-73
2022/04/04 03:25:33;;;;;;;22.23;12.97;;;2.50;99.90;;;;;;5091979;28;20212;-73
2022/04/04 03:28:00;;;;;;;23.73;12.60;;;2.50;99.90;;;;;;5092754;28;20223;-73
2022/04/04 03:30:29;;;;;;;19.90;11.87;;;2.50;99.90;;;;;;5091617;28;20197;-73
2022/04/04 03:32:58;;;;;;;22.33;13.10;;;2.60;99.90;;;;;;5091265;28;20213;-73
2022/04/04 03:35:26;;;;;;;21.70;13.73;;;2.60;99.90;;;;;;5091960;28;20197;-73
2022/04/04 03:37:55;;;;;;;22.83;14.93;;;2.60;99.90;;;;;;5092351;28;20209;-73
2022/04/04 03:40:24;;;;;;;22.57;14.07;;;2.60;99.90;;;;;;5091682;28;20209;-72
2022/04/04 03:42:53;;;;;;;23.33;14.97;;;2.60;99.90;;;;;;5092070;28;20220;-73
2022/04/04 03:45:20;;;;;;;21.77;13.90;;;2.60;99.90;;;;;;5092196;28;20210;-73
2022/04/04 03:47:48;;;;;;;23.33;15.23;;;2.60;99.90;;;;;;5092415;28;20560;-73
2022/04/04 03:50:16;;;;;;;23.50;13.87;;;2.60;99.90;;;;;;5091666;28;20198;-73
2022/04/04 03:52:45;;;;;;;23.07;14.57;;;2.60;99.90;;;;;;5091975;28;20690;-72
2022/04/04 03:55:13;;;;;;;21.80;14.20;;;2.60;99.90;;;;;;5092368;28;20211;-72
2022/04/04 03:57:42;;;;;;;23.17;13.50;;;2.60;99.90;;;;;;5092025;28;20198;-72
2022/04/04 04:00:10;;;;;;;20.63;12.93;;;2.60;99.90;;;;;;5091510;28;20197;-73
2022/04/04 04:02:37;;;;;;;22.17;13.27;;;2.70;90.40;;;;;;5092089;28;20208;-74
2022/04/04 04:05:05;;;;;;;22.80;13.03;;;2.60;95.70;;;;;;5091874;28;20223;-74
2022/04/04 04:07:32;;;;;;;21.53;12.70;;;2.70;99.90;;;;;;5092063;28;20645;-75
2022/04/04 04:09:59;;;;;;;19.97;12.57;;;2.70;75.80;;;;;;5091716;28;20198;-75
2022/04/04 04:12:26;;;;;;;20.50;12.67;;;2.70;75.00;;;;;;5091982;28;20205;-75
2022/04/04 04:14:54;;;;;;;17.43;10.30;;;2.70;63.60;;;;;;5092005;28;20232;-76
2022/04/04 04:17:22;;;;;;;17.80;10.50;;;2.70;57.50;;;;;;5091923;28;20205;-75
2022/04/04 04:22:34;;;;;;;19.10;11.60;;;2.80;1.00;;;;;;5091565;28;20286;-75
2022/04/04 04:25:03;;;;;;;18.97;12.10;;;2.80;1.00;;;;;;5092086;28;20607;-75
2022/04/04 04:27:30;;;;;;;20.57;12.87;;;2.80;1.00;;;;;;5091964;28;20295;-75
2022/04/04 04:29:58;;;;;;;21.13;12.07;;;2.80;1.00;;;;;;5091477;28;20582;-75
2022/04/04 04:32:25;;;;;;;19.00;11.90;;;2.80;1.00;;;;;;5092222;28;20236;-75
2022/04/04 04:34:52;;;;;;;18.63;11.47;;;2.90;1.00;;;;;;5091180;28;20222;-75
2022/04/04 04:37:21;;;;;;;20.13;11.93;;;2.90;1.00;;;;;;5089407;28;20237;-75
2022/04/04 04:39:48;;;;;;;20.47;12.90;;;2.90;1.00;;;;;;5091091;28;20210;-75
2022/04/04 04:42:15;;;;;;;19.43;12.37;;;2.90;1.00;;;;;;5090377;28;20578;-75
2022/04/04 04:44:42;;;;;;;21.83;12.97;;;2.90;1.00;;;;;;5090563;28;20198;-75
2022/04/04 04:47:10;;;;;;;21.60;13.00;;;2.90;1.00;;;;;;5093187;28;20204;-75
2022/04/04 04:49:37;;;;;;;20.50;12.17;;;2.90;1.00;;;;;;5094747;28;20574;-75
2022/04/04 04:52:04;;;;;;;20.90;12.83;;;3.00;1.00;;;;;;5094673;28;20228;-75
2022/04/04 04:54:31;;;;;;;19.30;11.97;;;2.90;1.00;;;;;;5094217;28;20222;-75
2022/04/04 04:56:59;;;;;;;21.10;12.47;;;3.00;1.00;;;;;;5094151;28;20201;-75
2022/04/04 04:59:26;;;;;;;22.50;12.97;;;3.00;1.00;;;;;;5094189;28;20205;-75
2022/04/04 05:01:52;;;;;;;18.40;11.63;;;3.00;1.00;;;;;;5094573;28;20201;-75
2022/04/04 05:04:21;;;;;;;21.00;11.90;;;3.00;1.00;;;;;;5094540;28;20197;-75
2022/04/04 05:06:49;;;;;;;18.17;11.77;;;3.00;1.00;;;;;;5094297;28;20205;-75
2022/04/04 05:09:17;;;;;;;22.20;12.87;;;3.00;1.00;;;;;;5093605;28;20202;-75
2022/04/04 05:11:44;;;;;;;19.83;12.07;;;3.00;1.00;;;;;;5093915;28;20205;-75
2022/04/04 05:14:15;;;;;;;15.50;10.80;;;3.10;1.00;;;;;;5094566;28;20330;-75
2022/04/04 05:16:43;;;;;;;17.30;11.33;;;3.10;1.00;;;;;;5094866;28;20226;-75
2022/04/04 05:19:11;;;;;;;18.53;10.50;;;3.10;1.00;;;;;;5093873;28;20610;-75
2022/04/04 05:21:40;;;;;;;16.97;10.10;;;3.20;1.00;;;;;;5094433;28;20229;-75
2022/04/04 05:24:08;;;;;;;16.00;9.90;;;3.30;99.90;;;;;;5095161;28;20300;-75
2022/04/04 05:26:35;;;;;;;16.77;10.13;;;3.40;99.90;;;;;;5094053;28;20205;-75
2022/04/04 05:29:02;;;;;;;17.23;10.57;;;3.40;99.90;;;;;;5093671;28;20224;-75
2022/04/04 05:31:30;;;;;;;18.17;10.63;;;3.40;99.90;;;;;;5093697;28;20208;-75
2022/04/04 05:33:57;;;;;;;15.30;9.53;;;3.40;30.00;;;;;;5094358;28;20232;-75
2022/04/04 05:36:24;;;;;;;14.17;7.97;;;3.40;1.00;;;;;;5093564;28;20212;-75
2022/04/04 05:38:53;;;;;;;13.70;8.40;;;3.50;1.00;;;;;;5092394;28;20210;-75
2022/04/04 05:41:20;;;;;;;14.90;8.73;;;3.50;1.00;;;;;;5093903;28;20201;-75
2022/04/04 05:43:47;;;;;;;14.57;8.07;;;3.50;1.00;;;;;;5093245;28;20667;-75
2022/04/04 05:46:16;;;;;;;13.57;7.83;;;3.60;1.00;;;;;;5093423;28;20209;-75
2022/04/04 05:48:43;;;;;;;12.77;7.70;;;3.70;1.00;;;;;;5093685;28;20208;-75
2022/04/04 05:51:10;;;;;;;18.27;8.53;;;3.70;1.00;;;;;;5093020;28;20198;-75
2022/04/04 05:53:37;;;;;;;15.57;8.00;;;3.70;1.00;;;;;;5093719;28;20221;-75
2022/04/04 05:56:05;;;;;;;12.77;7.90;;;3.80;1.00;;;;;;5094432;28;20209;-75
2022/04/04 05:58:32;;;;;;;13.27;8.40;;;3.70;1.00;;;;;;5092692;28;20201;-75
2022/04/04 06:00:59;;;;;;;12.40;7.70;;;3.80;99.90;;;;;;5093989;28;20668;-75
2022/04/04 06:03:26;;;;;;;11.90;7.83;;;3.80;99.90;;;;;;5093081;28;20209;-75
2022/04/04 06:05:54;;;;;;;11.33;7.17;;;3.80;99.90;;;;;;5093688;28;20205;-75
2022/04/04 06:08:21;;;;;;;12.53;7.50;;;3.90;1.00;;;;;;5092709;28;20214;-75
2022/04/04 06:10:48;;;;;;;14.73;7.77;;;3.90;99.90;;;;;;5092527;28;20557;-75
2022/04/04 06:13:17;;;;;;;13.10;7.67;;;4.00;99.90;;;;;;5092803;28;20213;-75
2022/04/04 06:15:45;;;;;;;12.80;6.93;;;4.00;1.00;;;;;;5092475;28;20336;-75
2022/04/04 06:18:12;;;;;;;12.33;7.77;;;4.10;1.00;;;;;;5092052;28;20205;-75
2022/04/04 06:20:40;;;;;;;12.73;6.77;;;4.30;99.90;;;;;;5092232;28;20202;-75
2022/04/04 06:23:07;;;;;;;12.07;7.20;;;4.20;99.90;;;;;;5092622;28;20668;-75
2022/04/04 06:25:34;;;;;;;15.07;7.67;;;4.30;99.90;;;;;;5093499;28;20208;-75
2022/04/04 06:28:01;;;;;;;14.17;7.67;;;4.40;1.00;;;;;;5092711;28;20209;-75
2022/04/04 06:30:29;;;;;;;12.60;7.10;;;4.50;1.00;;;;;;5092335;28;20213;-75
2022/04/04 06:32:56;;;;;;;12.50;6.83;;;4.40;1.00;;;;;;5092058;28;20207;-75
2022/04/04 06:35:25;;;;;;;13.87;7.57;;;4.50;99.90;;;;;;5093149;28;20580;-75
2022/04/04 06:37:52;;;;;;;13.67;7.43;;;4.50;26.00;;;;;;5099578;28;20197;-75
2022/04/04 06:40:21;;;;;;;12.63;7.27;;;4.50;1.00;;;;;;5091985;28;20213;-75
2022/04/04 06:42:48;;;;;;;13.50;7.37;;;4.50;1.00;;;;;;5092967;28;20209;-75
2022/04/04 06:45:15;;;;;;;13.80;7.03;;;4.60;1.00;;;;;;5093002;28;20213;-75
2022/04/04 06:47:44;;;;;;;10.73;7.30;;;4.60;1.00;;;;;;5094385;28;20240;-75
2022/04/04 06:50:13;;;;;;;14.43;7.07;;;4.70;1.00;;;;;;5103558;28;20636;-75
2022/04/04 06:52:40;;;;;;;14.00;7.63;;;4.70;1.00;;;;;;5112555;28;20197;-75
2022/04/04 06:55:08;;;;;;;11.03;7.23;;;4.80;99.90;;;;;;5113423;28;20311;-75
2022/04/04 06:57:35;;;;;;;13.10;7.20;;;4.90;93.50;;;;;;5100483;28;20217;-75
2022/04/04 07:00:02;;;;;;;10.90;6.47;;;4.90;99.90;;;;;;5078383;28;20568;-75
2022/04/04 07:02:29;;;;;;;13.97;6.87;;;5.00;99.90;;;;;;5074882;28;20630;-75
2022/04/04 07:04:57;;;;;;;9.37;5.17;;;5.10;1.00;;;;;;5092716;28;20197;-75
2022/04/04 07:07:25;;;;;;;11.03;6.40;;;5.10;1.00;;;;;;5091796;28;20213;-75
2022/04/04 07:09:52;;;;;;;10.40;6.27;;;5.20;1.00;;;;;;5091678;28;20212;-75
2022/04/04 07:12:18;;;;;;;9.43;5.57;;;5.20;1.00;;;;;;5092198;28;20202;-75
2022/04/04 07:14:45;;;;;;;8.40;5.50;;;5.20;1.00;;;;;;5091295;28;20567;-76
2022/04/04 07:17:12;;;;;;;11.63;6.13;;;5.30;1.00;;;;;;5091609;28;20205;-75
2022/04/04 07:19:39;;;;;;;9.33;6.27;;;5.30;1.00;;;;;;5070952;28;20209;-75
2022/04/04 07:22:08;;;;;;;10.83;6.17;;;5.30;1.00;;;;;;5071502;28;20202;-75
2022/04/04 07:24:34;;;;;;;9.57;5.93;;;5.30;99.90;;;;;;5072224;28;20203;-75
2022/04/04 07:27:01;;;;;;;9.70;5.70;;;5.40;99.90;;;;;;5071630;28;20202;-75
2022/04/04 07:29:28;;;;;;;10.40;6.07;;;5.40;99.90;;;;;;5089084;28;20210;-75
2022/04/04 07:31:55;;;;;;;9.57;5.63;;;5.50;99.90;;;;;;5092182;28;20628;-75
2022/04/04 07:34:22;;;;;;;12.53;5.97;;;5.50;99.90;;;;;;5091877;28;20221;-74
2022/04/04 07:36:49;;;;;;;10.20;6.57;;;5.60;99.90;;;;;;5092180;28;20232;-74
2022/04/04 07:39:17;;;;;;;9.73;5.80;;;5.60;99.90;;;;;;5091505;28;20679;-73
2022/04/04 07:41:44;;;;;;;9.43;5.70;;;5.70;99.90;;;;;;5091260;28;20205;-73
2022/04/04 07:44:11;;;;;;;8.40;5.50;;;5.60;98.60;;;;;;5092222;28;20205;-74
2022/04/04 07:46:37;;;;;;;9.57;5.57;;;5.60;1.00;;;;;;5091114;28;20211;-74
2022/04/04 07:49:04;;;;;;;11.17;5.73;;;5.70;47.50;;;;;;5090768;28;20212;-74
2022/04/04 07:51:31;;;;;;;10.93;5.60;;;5.70;1.00;;;;;;5091143;28;20198;-74
2022/04/04 07:53:58;;;;;;;9.60;5.80;;;5.70;41.90;;;;;;5091477;28;20205;-74
2022/04/04 07:56:26;;;;;;;11.87;5.97;;;5.80;1.00;;;;;;5091802;28;20212;-74
2022/04/04 07:58:53;;;;;;;8.60;5.50;;;5.80;1.00;;;;;;5090742;28;20209;-74
2022/04/04 08:01:20;;;;;;;9.57;6.10;;;5.80;1.00;;;;;;5092125;28;20206;-74
2022/04/04 08:03:47;;;;;;;9.10;6.10;;;5.80;1.00;;;;;;5091167;28;20216;-74
2022/04/04 08:06:14;;;;;;;8.27;5.73;;;5.80;1.00;;;;;;5091943;28;20220;-74
2022/04/04 08:08:41;;;;;;;10.43;6.10;;;5.90;1.00;;;;;;5090183;28;20209;-74
2022/04/04 08:11:09;;;;;;;8.53;5.53;;;5.80;1.00;;;;;;5091247;28;20205;-74
2022/04/04 08:13:42;;;;;;;9.07;5.43;;;5.90;1.00;;;;;;5091390;28;20213;-74
2022/04/04 08:16:09;;;;;;;8.43;5.40;;;6.00;1.00;;;;;;5070950;28;20218;-74
2022/04/04 08:18:36;;;;;;;7.87;5.20;;;6.00;1.00;;;;;;5070525;28;20742;-74
2022/04/04 08:21:03;;;;;;;9.87;5.13;;;6.00;1.00;;;;;;5070186;28;20293;-75
2022/04/04 08:23:31;;;;;;;8.83;5.10;;;6.10;1.00;;;;;;5094894;28;20570;-75
2022/04/04 08:25:58;;;;;;;7.47;4.70;;;6.10;1.00;;;;;;5095006;28;20202;-75
2022/04/04 08:28:27;;;;;;;7.63;4.90;;;6.20;1.00;;;;;;5095273;28;20202;-75
2022/04/04 08:30:56;;;;;;;10.10;5.67;;;6.20;1.00;;;;;;5095711;28;20720;-75
2022/04/04 08:33:24;;;;;;;8.00;5.20;;;6.20;1.00;;;;;;5095624;28;20205;-75
2022/04/04 08:35:53;;;;;;;8.63;5.87;;;6.30;1.00;;;;;;5094373;28;20225;-75
2022/04/04 08:38:20;;;;;;;9.57;5.57;;;6.40;1.00;;;;;;5095120;28;20664;-75
2022/04/04 08:40:49;;;;;;;8.30;4.93;;;6.40;1.00;;;;;;5095046;28;20639;-75
2022/04/04 08:43:19;;;;;;;8.10;4.87;;;6.50;99.90;;;;;;5094712;28;20301;-75
2022/04/04 08:45:48;;;;;;;8.90;5.17;;;6.50;99.90;;;;;;5094726;28;20637;-75
2022/04/04 08:48:18;;;;;;;6.43;4.60;;;6.60;99.90;;;;;;5094692;28;20209;-75
2022/04/04 08:50:45;;;;;;;6.03;4.13;;;6.60;99.90;;;;;;5094020;28;20197;-75
2022/04/04 08:53:12;;;;;;;7.90;4.80;;;6.50;99.90;;;;;;5094461;28;20616;-75
2022/04/04 08:55:39;;;;;;;6.73;4.60;;;6.60;99.90;;;;;;5094816;28;20221;-75
2022/04/04 08:58:06;;;;;;;7.40;4.30;;;6.70;99.90;;;;;;5094290;28;20212;-75
2022/04/04 09:00:33;;;;;;;8.77;4.73;;;6.70;99.90;;;;;;5094690;28;20205;-75
2022/04/04 09:03:03;;;;;;;7.70;4.50;;;6.80;99.90;;;;;;5094450;28;20594;-75
2022/04/04 09:05:33;;;;;;;7.00;4.77;;;6.80;99.90;;;;;;5094361;28;20197;-75
2022/04/04 09:08:02;;;;;;;7.63;4.87;;;6.70;99.90;;;;;;5094684;28;20292;-75
2022/04/04 09:10:40;;;;;;;7.63;4.60;;;6.60;61.40;;;;;;5092598;28;20197;-75
2022/04/04 09:13:12;;;;;;;12.40;4.90;;;6.60;20.20;;;;;;5094081;28;20212;-75
2022/04/04 09:15:56;;;;;;;7.07;5.00;;;6.60;15.10;;;;;;5094068;28;20644;-75
2022/04/04 09:18:42;;;;;;;6.60;4.13;;;6.70;99.90;;;;;;5094058;28;20209;-75
2022/04/04 09:21:12;;;;;;;7.80;4.87;;;6.70;99.90;;;;;;5094704;28;20206;-75
2022/04/04 09:23:54;;;;;;;7.20;4.60;;;6.60;99.90;;;;;;5094503;28;20227;-75
2022/04/04 09:26:28;;;;;;;13.93;5.20;;;6.70;99.90;;;;;;5093779;28;20225;-75
2022/04/04 09:28:55;;;;;;;7.63;4.80;;;6.80;99.90;;;;;;5093703;28;20201;-75
2022/04/04 09:31:23;;;;;;;6.63;4.60;;;6.80;99.90;;;;;;5094132;28;20208;-75
2022/04/04 09:33:50;;;;;;;8.57;5.73;;;6.90;99.90;;;;;;5093330;28;20206;-75
2022/04/04 09:36:18;;;;;;;7.40;5.43;;;6.90;99.90;;;;;;5093481;28;20226;-75
2022/04/04 09:38:55;;;;;;;7.37;5.17;;;6.90;1.00;;;;;;5092701;28;20299;-75
2022/04/04 09:41:22;;;;;;;7.93;4.97;;;6.70;1.00;;;;;;5093386;28;20577;-75
2022/04/04 09:43:53;;;;;;;7.93;5.20;;;6.60;1.00;;;;;;5093242;28;20214;-75
2022/04/04 09:46:20;;;;;;;11.07;6.47;;;6.50;1.00;;;;;;5094297;28;20202;-75
2022/04/04 09:49:08;;;;;;;10.83;6.07;;;6.30;99.90;;;;;;5093373;28;20216;-75
2022/04/04 09:51:38;;;;;;;9.93;6.00;;;6.20;1.00;;;;;;5094103;28;20221;-74
2022/04/04 09:54:07;;;;;;;10.37;5.87;;;6.00;1.00;;;;;;5093874;28;20208;-75
2022/04/04 09:56:34;;;;;;;8.87;5.53;;;5.90;1.00;;;;;;5093336;28;20581;-75
2022/04/04 09:59:01;;;;;;;10.00;5.83;;;6.00;1.00;;;;;;5093561;28;20655;-75
2022/04/04 10:01:29;;;;;;;11.90;7.10;;;6.00;1.00;;;;;;5093034;28;20204;-75
2022/04/04 10:03:57;;;;;;;9.43;6.10;;;6.00;99.90;;;;;;5093918;28;20312;-75
2022/04/04 10:06:28;;;;;;;9.37;5.97;;;6.00;99.90;;;;;;5093661;28;20201;-75
2022/04/04 10:08:58;;;;;;;10.63;5.80;;;6.00;99.90;;;;;;5093140;28;20548;-75
2022/04/04 10:11:27;;;;;;;10.10;5.93;;;6.00;99.90;;;;;;5092514;28;20204;-75
2022/04/04 10:13:55;;;;;;;11.30;6.53;;;6.00;99.90;;;;;;5093746;28;20208;-75
2022/04/04 10:16:23;;;;;;;11.80;6.80;;;6.00;1.00;;;;;;5092585;28;20627;-75
2022/04/04 10:18:51;;;;;;;9.57;6.87;;;6.10;1.00;;;;;;5092730;28;20621;-75
2022/04/04 10:21:19;;;;;;;10.77;6.80;;;6.10;1.00;;;;;;5093207;28;20217;-75
2022/04/04 10:23:48;;;;;;;10.87;6.23;;;6.20;1.00;;;;;;5093033;28;20198;-75
2022/04/04 10:26:19;;;;;;;9.40;6.33;;;6.20;1.00;;;;;;5093507;28;20194;-75
2022/04/04 10:28:48;;;;;;;13.23;7.43;;;6.20;1.00;;;;;;5092182;28;20206;-75
2022/04/04 10:31:18;;;;;;;10.57;6.50;;;6.20;99.90;;;;;;5093333;28;20565;-75
2022/04/04 10:33:46;;;;;;;10.53;6.90;;;6.20;99.90;;;;;;5092663;28;20211;-75
2022/04/04 10:36:15;;;;;;;13.73;6.47;;;6.40;99.90;;;;;;5093532;28;20556;-75
2022/04/04 10:38:48;;;;;;;9.93;7.07;;;6.50;1.00;;;;;;5100465;28;20201;-75
2022/04/04 10:41:18;;;;;;;11.90;7.40;;;6.70;1.00;;;;;;5092933;28;20311;-75
2022/04/04 10:43:47;;;;;;;9.30;6.13;;;6.70;1.00;;;;;;5092279;28;20214;-75
2022/04/04 10:46:15;;;;;;;13.80;6.73;;;6.70;99.90;;;;;;5092676;28;20206;-75
2022/04/04 10:48:48;;;;;;;9.57;6.63;;;6.70;99.90;;;;;;5100671;28;20220;-75
2022/04/04 10:51:17;;;;;;;9.90;6.73;;;6.80;1.00;;;;;;5106649;28;20197;-75
2022/04/04 10:53:47;;;;;;;9.43;6.77;;;6.80;1.00;;;;;;5113041;28;20204;-75
2022/04/04 10:56:21;;;;;;;12.67;6.63;;;6.90;1.00;;;;;;5113087;28;20219;-75
2022/04/04 10:58:48;;;;;;;10.10;6.93;;;6.70;1.00;;;;;;5098791;28;20669;-75
2022/04/04 11:01:16;;;;;;;11.67;7.23;;;6.70;1.00;;;;;;5092951;28;20570;-75
2022/04/04 11:03:58;;;;;;;11.30;7.80;;;6.60;99.90;;;;;;5091738;28;20206;-75
2022/04/04 11:09:32;;;;;;;11.60;7.37;;;6.40;99.90;;;;;;5092533;28;20216;-76
2022/04/04 11:12:14;;;;;;;13.23;8.00;;;6.30;1.00;;;;;;5092008;28;20208;-76
2022/04/04 11:14:55;;;;;;;14.43;8.60;;;6.30;1.00;;;;;;5092258;28;20205;-76
2022/04/04 11:17:36;;;;;;;13.17;8.43;;;6.20;1.00;;;;;;5091321;28;20213;-76
2022/04/04 11:20:16;;;;;;;13.27;8.50;;;6.20;26.80;;;;;;5092038;28;20201;-76
2022/04/04 11:22:46;;;;;;;13.90;8.30;;;6.20;1.00;;;;;;5092137;28;20557;-76
2022/04/04 11:25:16;;;;;;;11.70;8.00;;;6.10;1.00;;;;;;5092343;28;20308;-76
2022/04/04 11:27:48;;;;;;;13.67;8.17;;;5.90;99.90;;;;;;5091645;28;20560;-75
2022/04/04 11:30:18;;;;;;;14.27;9.33;;;6.00;1.00;;;;;;5092187;28;20202;-76
2022/04/04 11:32:47;;;;;;;15.27;9.20;;;6.00;99.90;;;;;;5091830;28;20213;-76
2022/04/04 11:35:18;;;;;;;14.70;9.57;;;6.00;99.90;;;;;;5092379;28;20593;-75
2022/04/04 11:37:48;;;;;;;14.27;9.53;;;6.00;99.90;;;;;;5092258;28;20296;-75
2022/04/04 11:40:18;;;;;;;15.77;8.57;;;5.90;1.00;;;;;;5091275;28;20695;-75
2022/04/04 11:42:50;;;;;;;13.20;8.80;;;5.80;1.00;;;;;;5091478;28;20228;-75
2022/04/04 11:45:18;;;;;;;15.00;10.03;;;5.80;1.00;;;;;;5091392;28;20204;-76
2022/04/04 11:47:56;;;;;;;15.80;9.47;;;5.80;1.00;;;;;;5090047;28;20209;-75
2022/04/04 11:50:26;;;;;;;14.23;8.83;;;5.60;99.90;;;;;;5087960;28;20205;-75
2022/04/04 11:52:56;;;;;;;14.07;9.63;;;5.50;1.00;;;;;;5093455;28;20288;-75
2022/04/04 11:55:27;;;;;;;15.20;10.53;;;5.50;1.00;;;;;;5091901;28;20229;-75
2022/04/04 11:57:58;;;;;;;13.20;9.07;;;5.40;1.00;;;;;;5095668;28;20216;-75
2022/04/04 12:00:28;;;;;;;16.43;10.97;;;5.20;1.00;;;;;;5093734;28;20213;-75
2022/04/04 12:02:55;;;;;;;17.27;11.83;;;5.20;41.60;;;;;;5094756;28;20609;-75
2022/04/04 12:05:26;;;;;;;13.97;9.63;;;5.20;99.90;;;;;;5095687;28;20217;-74
2022/04/04 12:07:54;;;;;;;16.80;11.60;;;5.20;99.90;;;;;;5094843;28;20292;-74
2022/04/04 12:10:31;;;;;;;14.73;10.30;;;5.20;99.90;;;;;;5094708;28;20255;-74
2022/04/04 12:13:07;;;;;;;17.20;11.60;;;5.10;99.90;;;;;;5093677;28;20205;-74
2022/04/04 12:15:36;;;;;;;13.70;8.87;;;5.10;99.90;;;;;;5094632;28;20644;-74
2022/04/04 12:18:12;;;;;;;16.23;11.47;;;5.00;99.90;;;;;;5094450;28;20220;-74
2022/04/04 12:20:48;;;;;;;15.77;10.83;;;5.00;99.90;;;;;;5093186;28;20796;-74
2022/04/04 12:26:04;;;;;;;16.70;11.60;;;4.90;99.90;;;;;;5094562;28;20212;-74
2022/04/04 12:28:39;;;;;;;15.43;10.27;;;4.90;99.90;;;;;;5093159;28;20224;-73
2022/04/04 12:31:14;;;;;;;16.40;11.07;;;4.90;99.90;;;;;;5092583;28;20205;-72
2022/04/04 12:33:42;;;;;;;17.33;10.80;;;5.00;99.90;;;;;;5094456;28;20291;-74
2022/04/04 12:36:09;;;;;;;14.27;10.27;;;4.90;99.90;;;;;;5094104;28;20232;-73
2022/04/04 12:38:38;;;;;;;14.40;9.60;;;5.00;99.90;;;;;;5093642;28;20198;-73
2022/04/04 12:41:13;;;;;;;14.87;10.87;;;4.90;99.90;;;;;;5094786;28;20722;-73
2022/04/04 12:43:45;;;;;;;14.70;9.23;;;4.90;99.90;;;;;;5092861;28;20644;-74
2022/04/04 12:46:27;;;;;;;14.63;8.93;;;4.90;99.90;;;;;;5085425;28;20202;-74
2022/04/04 12:48:56;;;;;;;17.00;10.47;;;5.00;99.90;;;;;;5092368;28;20632;-75
2022/04/04 12:51:33;;;;;;;14.33;9.23;;;5.00;99.90;;;;;;5091321;28;20206;-75
2022/04/04 12:54:01;;;;;;;14.27;9.10;;;4.90;99.90;;;;;;5091557;28;20198;-74
2022/04/04 12:56:28;;;;;;;13.67;9.70;;;4.80;99.90;;;;;;5093140;28;20221;-74
2022/04/04 12:59:05;;;;;;;13.97;8.83;;;4.90;99.90;;;;;;5089530;28;20293;-74
2022/04/04 13:01:32;;;;;;;13.40;9.43;;;4.90;99.90;;;;;;5093501;28;20523;-74
2022/04/04 13:03:59;;;;;;;11.47;7.83;;;4.90;99.90;;;;;;5094832;28;20193;-74
2022/04/04 13:06:31;;;;;;;11.20;8.00;;;4.80;99.90;;;;;;5091844;28;20201;-74
2022/04/04 13:09:05;;;;;;;12.60;8.20;;;4.80;99.90;;;;;;5091495;28;20209;-74